sensor_id;sensor_type;location;lat;lon;timestamp;temperature;humidity
10419;DHT22;5256;48.728;9.140;2024-03-17T00:01:33;4.30;99.90
10419;DHT22;5256;48.728;9.140;2024-03-17T00:03:58;4.30;99.90
10419;DHT22;5256;48.728;9.140;2024-03-17T00:06:24;4.20;99.90
10419;DHT22;5256;48.728;9.140;2024-03-17T00:08:50;4.10;99.90
10419;DHT22;5256;48.728;9.140;2024-03-17T00:11:15;4.10;99.90
10419;DHT22;5256;48.728;9.140;2024-03-17T00:13:41;4.10;99.90
10419;DHT22;5256;48.728;9.140;2024-03-17T00:16:07;4.10;99.90
10419;DHT22;5256;48.728;9.140;2024-03-17T00:18:32;4.10;99.90
10419;DHT22;5256;48.728;9.140;2024-03-17T00:20:58;4.10;99.90
10419;DHT22;5256;48.728;9.140;2024-03-17T00:23:25;4.20;99.90
10419;DHT22;5256;48.728;9.140;2024-03-17T00:25:50;4.10;99.90
10419;DHT22;5256;48.728;9.140;2024-03-17T00:28:18;4.20;99.90
10419;DHT22;5256;48.728;9.140;2024-03-17T00:30:46;4.10;99.90
10419;DHT22;5256;48.728;9.140;2024-03-17T00:33:11;4.10;99.90
10419;DHT22;5256;48.728;9.140;2024-03-17T00:35:37;4.10;99.90
10419;DHT22;5256;48.728;9.140;2024-03-17T00:38:02;4.10;99.90
10419;DHT22;5256;48.728;9.140;2024-03-17T00:40:36;4.10;99.90
10419;DHT22;5256;48.728;9.140;2024-03-17T00:43:02;4.10;99.90
10419;DHT22;5256;48.728;9.140;2024-03-17T00:45:27;4.10;99.90
10419;DHT22;5256;48.728;9.140;2024-03-17T00:47:53;4.10;99.90
10419;DHT22;5256;48.728;9.140;2024-03-17T00:50:18;4.10;99.90
10419;DHT22;5256;48.728;9.140;2024-03-17T00:52:44;4.10;99.90
10419;DHT22;5256;48.728;9.140;2024-03-17T00:55:09;4.10;99.90
10419;DHT22;5256;48.728;9.140;2024-03-17T00:57:36;4.00;99.90
10419;DHT22;5256;48.728;9.140;2024-03-17T01:00:03;4.00;99.90
10419;DHT22;5256;48.728;9.140;2024-03-17T01:02:29;4.00;99.90
10419;DHT22;5256;48.728;9.140;2024-03-17T01:04:57;4.00;99.90
10419;DHT22;5256;48.728;9.140;2024-03-17T01:07:23;4.00;99.90
10419;DHT22;5256;48.728;9.140;2024-03-17T01:09:49;4.00;99.90
10419;DHT22;5256;48.728;9.140;2024-03-17T01:12:14;4.00;99.90
10419;DHT22;5256;48.728;9.140;2024-03-17T01:14:40;4.00;99.90
10419;DHT22;5256;48.728;9.140;2024-03-17T01:17:06;4.10;99.90
10419;DHT22;5256;48.728;9.140;2024-03-17T01:19:32;4.20;99.90
10419;DHT22;5256;48.728;9.140;2024-03-17T01:22:00;4.20;99.90
10419;DHT22;5256;48.728;9.140;2024-03-17T01:24:26;4.20;99.90
10419;DHT22;5256;48.728;9.140;2024-03-17T01:27:00;4.20;99.90
10419;DHT22;5256;48.728;9.140;2024-03-17T01:29:27;4.20;99.90
10419;DHT22;5256;48.728;9.140;2024-03-17T01:31:52;4.10;99.90
10419;DHT22;5256;48.728;9.140;2024-03-17T01:34:21;4.10;99.90
10419;DHT22;5256;48.728;9.140;2024-03-17T01:36:47;4.10;99.90
10419;DHT22;5256;48.728;9.140;2024-03-17T01:39:13;4.20;99.90
10419;DHT22;5256;48.728;9.140;2024-03-17T01:41:39;4.10;99.90
10419;DHT22;5256;48.728;9.140;2024-03-17T01:44:05;4.20;99.90
10419;DHT22;5256;48.728;9.140;2024-03-17T01:46:31;4.30;99.90
10419;DHT22;5256;48.728;9.140;2024-03-17T01:48:57;4.30;99.90
10419;DHT22;5256;48.728;9.140;2024-03-17T01:51:23;4.40;99.90
10419;DHT22;5256;48.728;9.140;2024-03-17T01:53:50;4.50;99.90
10419;DHT22;5256;48.728;9.140;2024-03-17T01:56:16;4.50;99.90
10419;DHT22;5256;48.728;9.140;2024-03-17T01:58:44;4.60;99.90
10419;DHT22;5256;48.728;9.140;2024-03-17T02:01:11;4.70;99.90
10419;DHT22;5256;48.728;9.140;2024-03-17T02:03:40;4.70;99.90
10419;DHT22;5256;48.728;9.140;2024-03-17T02:06:07;4.80;99.90
10419;DHT22;5256;48.728;9.140;2024-03-17T02:08:49;4.80;99.90
10419;DHT22;5256;48.728;9.140;2024-03-17T02:13:49;4.90;99.90
10419;DHT22;5256;48.728;9.140;2024-03-17T02:16:15;4.90;99.90
10419;DHT22;5256;48.728;9.140;2024-03-17T02:18:42;4.90;99.90
10419;DHT22;5256;48.728;9.140;2024-03-17T02:21:07;4.90;99.90
10419;DHT22;5256;48.728;9.140;2024-03-17T02:23:34;4.90;99.90
10419;DHT22;5256;48.728;9.140;2024-03-17T02:26:00;4.90;99.90
10419;DHT22;5256;48.728;9.140;2024-03-17T02:28:25;5.00;99.90
10419;DHT22;5256;48.728;9.140;2024-03-17T02:30:51;5.00;99.90
10419;DHT22;5256;48.728;9.140;2024-03-17T02:33:16;5.00;99.90
10419;DHT22;5256;48.728;9.140;2024-03-17T02:35:42;5.00;99.90
10419;DHT22;5256;48.728;9.140;2024-03-17T02:38:09;5.00;99.90
10419;DHT22;5256;48.728;9.140;2024-03-17T02:40:37;5.00;99.90
10419;DHT22;5256;48.728;9.140;2024-03-17T02:43:02;5.00;99.90
10419;DHT22;5256;48.728;9.140;2024-03-17T02:45:28;5.00;99.90
10419;DHT22;5256;48.728;9.140;2024-03-17T02:47:53;5.00;99.90
10419;DHT22;5256;48.728;9.140;2024-03-17T02:50:20;5.00;99.90
10419;DHT22;5256;48.728;9.140;2024-03-17T02:52:46;4.90;99.90
10419;DHT22;5256;48.728;9.140;2024-03-17T02:55:11;4.90;99.90
10419;DHT22;5256;48.728;9.140;2024-03-17T02:57:37;4.90;99.90
10419;DHT22;5256;48.728;9.140;2024-03-17T03:00:02;4.90;99.90
10419;DHT22;5256;48.728;9.140;2024-03-17T03:02:30;4.80;99.90
10419;DHT22;5256;48.728;9.140;2024-03-17T03:04:56;4.80;99.90
10419;DHT22;5256;48.728;9.140;2024-03-17T03:07:21;4.70;99.90
10419;DHT22;5256;48.728;9.140;2024-03-17T03:09:47;4.70;99.90
10419;DHT22;5256;48.728;9.140;2024-03-17T03:12:12;4.60;99.90
10419;DHT22;5256;48.728;9.140;2024-03-17T03:14:38;4.50;99.90
10419;DHT22;5256;48.728;9.140;2024-03-17T03:17:03;4.50;99.90
10419;DHT22;5256;48.728;9.140;2024-03-17T03:19:29;4.40;99.90
10419;DHT22;5256;48.728;9.140;2024-03-17T03:21:55;4.40;99.90
10419;DHT22;5256;48.728;9.140;2024-03-17T03:24:21;4.40;99.90
10419;DHT22;5256;48.728;9.140;2024-03-17T03:26:47;4.40;99.90
10419;DHT22;5256;48.728;9.140;2024-03-17T03:29:13;4.30;99.90
10419;DHT22;5256;48.728;9.140;2024-03-17T03:31:40;4.30;99.90
10419;DHT22;5256;48.728;9.140;2024-03-17T03:34:06;4.30;99.90
10419;DHT22;5256;48.728;9.140;2024-03-17T03:36:34;4.30;99.90
10419;DHT22;5256;48.728;9.140;2024-03-17T03:39:01;4.30;99.90
10419;DHT22;5256;48.728;9.140;2024-03-17T03:41:26;4.30;99.90
10419;DHT22;5256;48.728;9.140;2024-03-17T03:43:52;4.30;99.90
10419;DHT22;5256;48.728;9.140;2024-03-17T03:46:18;4.30;99.90
10419;DHT22;5256;48.728;9.140;2024-03-17T03:48:43;4.30;99.90
10419;DHT22;5256;48.728;9.140;2024-03-17T03:51:09;4.20;99.90
10419;DHT22;5256;48.728;9.140;2024-03-17T03:53:36;4.20;99.90
10419;DHT22;5256;48.728;9.140;2024-03-17T03:56:06;4.20;99.90
10419;DHT22;5256;48.728;9.140;2024-03-17T03:58:33;4.20;99.90
10419;DHT22;5256;48.728;9.140;2024-03-17T04:01:03;4.10;99.90
10419;DHT22;5256;48.728;9.140;2024-03-17T04:03:28;4.10;99.90
10419;DHT22;5256;48.728;9.140;2024-03-17T04:06:02;4.20;99.90
10419;DHT22;5256;48.728;9.140;2024-03-17T04:08:29;4.20;99.90
10419;DHT22;5256;48.728;9.140;2024-03-17T04:10:55;4.30;99.90
10419;DHT22;5256;48.728;9.140;2024-03-17T04:13:21;4.40;99.90
10419;DHT22;5256;48.728;9.140;2024-03-17T04:15:48;4.40;99.90
10419;DHT22;5256;48.728;9.140;2024-03-17T04:18:13;4.30;99.90
10419;DHT22;5256;48.728;9.140;2024-03-17T04:20:41;4.30;99.90
10419;DHT22;5256;48.728;9.140;2024-03-17T04:23:07;4.30;99.90
10419;DHT22;5256;48.728;9.140;2024-03-17T04:25:33;4.30;99.90
10419;DHT22;5256;48.728;9.140;2024-03-17T04:27:58;4.40;99.90
10419;DHT22;5256;48.728;9.140;2024-03-17T04:30:24;4.40;99.90
10419;DHT22;5256;48.728;9.140;2024-03-17T04:32:49;4.50;99.90
10419;DHT22;5256;48.728;9.140;2024-03-17T04:35:15;4.40;99.90
10419;DHT22;5256;48.728;9.140;2024-03-17T04:37:42;4.40;99.90
10419;DHT22;5256;48.728;9.140;2024-03-17T04:40:08;4.40;99.90
10419;DHT22;5256;48.728;9.140;2024-03-17T04:42:35;4.40;99.90
10419;DHT22;5256;48.728;9.140;2024-03-17T04:45:00;4.40;99.90
10419;DHT22;5256;48.728;9.140;2024-03-17T04:47:26;4.30;99.90
10419;DHT22;5256;48.728;9.140;2024-03-17T04:49:51;4.30;99.90
10419;DHT22;5256;48.728;9.140;2024-03-17T04:52:18;4.30;99.90
10419;DHT22;5256;48.728;9.140;2024-03-17T04:54:43;4.30;99.90
10419;DHT22;5256;48.728;9.140;2024-03-17T04:57:09;4.30;99.90
10419;DHT22;5256;48.728;9.140;2024-03-17T04:59:35;4.30;99.90
10419;DHT22;5256;48.728;9.140;2024-03-17T05:02:01;4.30;99.90
10419;DHT22;5256;48.728;9.140;2024-03-17T05:04:28;4.30;99.90
10419;DHT22;5256;48.728;9.140;2024-03-17T05:06:53;4.20;99.90
10419;DHT22;5256;48.728;9.140;2024-03-17T05:09:19;4.10;99.90
10419;DHT22;5256;48.728;9.140;2024-03-17T05:11:45;4.00;99.90
10419;DHT22;5256;48.728;9.140;2024-03-17T05:14:11;4.00;99.90
10419;DHT22;5256;48.728;9.140;2024-03-17T05:16:36;3.90;99.90
10419;DHT22;5256;48.728;9.140;2024-03-17T05:19:02;4.00;99.90
10419;DHT22;5256;48.728;9.140;2024-03-17T05:21:29;4.00;99.90
10419;DHT22;5256;48.728;9.140;2024-03-17T05:23:57;4.00;99.90
10419;DHT22;5256;48.728;9.140;2024-03-17T05:26:24;4.00;99.90
10419;DHT22;5256;48.728;9.140;2024-03-17T05:28:50;3.90;99.90
10419;DHT22;5256;48.728;9.140;2024-03-17T05:31:16;3.90;99.90
10419;DHT22;5256;48.728;9.140;2024-03-17T05:33:46;4.00;99.90
10419;DHT22;5256;48.728;9.140;2024-03-17T05:36:11;4.00;99.90
10419;DHT22;5256;48.728;9.140;2024-03-17T05:38:37;4.10;99.90
10419;DHT22;5256;48.728;9.140;2024-03-17T05:41:05;4.10;99.90
10419;DHT22;5256;48.728;9.140;2024-03-17T05:43:32;4.20;99.90
10419;DHT22;5256;48.728;9.140;2024-03-17T05:45:59;4.20;99.90
10419;DHT22;5256;48.728;9.140;2024-03-17T05:48:26;4.20;99.90
10419;DHT22;5256;48.728;9.140;2024-03-17T05:50:53;4.20;99.90
10419;DHT22;5256;48.728;9.140;2024-03-17T05:53:19;4.30;99.90
10419;DHT22;5256;48.728;9.140;2024-03-17T05:55:45;4.30;99.90
10419;DHT22;5256;48.728;9.140;2024-03-17T05:58:10;4.30;99.90
10419;DHT22;5256;48.728;9.140;2024-03-17T06:00:37;4.30;99.90
10419;DHT22;5256;48.728;9.140;2024-03-17T06:03:04;4.30;99.90
10419;DHT22;5256;48.728;9.140;2024-03-17T06:05:34;4.30;99.90
10419;DHT22;5256;48.728;9.140;2024-03-17T06:08:01;4.20;99.90
10419;DHT22;5256;48.728;9.140;2024-03-17T06:10:32;4.20;99.90
10419;DHT22;5256;48.728;9.140;2024-03-17T06:12:58;4.20;99.90
10419;DHT22;5256;48.728;9.140;2024-03-17T06:15:24;4.20;99.90
10419;DHT22;5256;48.728;9.140;2024-03-17T06:17:51;4.30;99.90
10419;DHT22;5256;48.728;9.140;2024-03-17T06:20:28;4.40;99.90
10419;DHT22;5256;48.728;9.140;2024-03-17T06:22:55;4.50;99.90
10419;DHT22;5256;48.728;9.140;2024-03-17T06:25:21;4.60;99.90
10419;DHT22;5256;48.728;9.140;2024-03-17T06:27:52;4.80;99.90
10419;DHT22;5256;48.728;9.140;2024-03-17T06:30:18;4.90;99.90
10419;DHT22;5256;48.728;9.140;2024-03-17T06:32:45;5.00;99.90
10419;DHT22;5256;48.728;9.140;2024-03-17T06:35:11;5.10;99.90
10419;DHT22;5256;48.728;9.140;2024-03-17T06:37:37;5.20;99.90
10419;DHT22;5256;48.728;9.140;2024-03-17T06:40:04;5.30;99.90
10419;DHT22;5256;48.728;9.140;2024-03-17T06:42:31;5.40;99.90
10419;DHT22;5256;48.728;9.140;2024-03-17T06:44:56;5.60;99.90
10419;DHT22;5256;48.728;9.140;2024-03-17T06:47:24;5.80;99.90
10419;DHT22;5256;48.728;9.140;2024-03-17T06:49:50;6.00;99.90
10419;DHT22;5256;48.728;9.140;2024-03-17T06:52:16;6.20;99.90
10419;DHT22;5256;48.728;9.140;2024-03-17T06:54:41;6.40;99.90
10419;DHT22;5256;48.728;9.140;2024-03-17T06:57:07;6.40;99.90
10419;DHT22;5256;48.728;9.140;2024-03-17T06:59:33;6.50;99.90
10419;DHT22;5256;48.728;9.140;2024-03-17T07:01:58;6.70;99.90
10419;DHT22;5256;48.728;9.140;2024-03-17T07:04:24;6.80;99.90
10419;DHT22;5256;48.728;9.140;2024-03-17T07:06:49;7.10;99.90
10419;DHT22;5256;48.728;9.140;2024-03-17T07:09:15;7.50;99.90
10419;DHT22;5256;48.728;9.140;2024-03-17T07:11:42;7.90;99.90
10419;DHT22;5256;48.728;9.140;2024-03-17T07:14:09;8.40;99.90
10419;DHT22;5256;48.728;9.140;2024-03-17T07:16:35;8.80;99.90
10419;DHT22;5256;48.728;9.140;2024-03-17T07:19:02;9.10;99.90
10419;DHT22;5256;48.728;9.140;2024-03-17T07:21:27;9.20;99.90
10419;DHT22;5256;48.728;9.140;2024-03-17T07:23:53;9.20;99.90
10419;DHT22;5256;48.728;9.140;2024-03-17T07:26:18;9.30;99.90
10419;DHT22;5256;48.728;9.140;2024-03-17T07:28:44;9.40;99.90
10419;DHT22;5256;48.728;9.140;2024-03-17T07:31:10;9.60;99.90
10419;DHT22;5256;48.728;9.140;2024-03-17T07:33:36;9.90;99.90
10419;DHT22;5256;48.728;9.140;2024-03-17T07:36:02;10.10;99.90
10419;DHT22;5256;48.728;9.140;2024-03-17T07:38:30;10.20;99.90
10419;DHT22;5256;48.728;9.140;2024-03-17T07:40:59;10.50;99.90
10419;DHT22;5256;48.728;9.140;2024-03-17T07:43:26;10.80;99.90
10419;DHT22;5256;48.728;9.140;2024-03-17T07:46:01;11.20;99.90
10419;DHT22;5256;48.728;9.140;2024-03-17T07:48:28;11.40;99.90
10419;DHT22;5256;48.728;9.140;2024-03-17T07:50:55;11.60;99.90
10419;DHT22;5256;48.728;9.140;2024-03-17T07:53:21;11.80;99.90
10419;DHT22;5256;48.728;9.140;2024-03-17T07:55:46;12.10;99.90
10419;DHT22;5256;48.728;9.140;2024-03-17T07:58:12;12.20;99.90
10419;DHT22;5256;48.728;9.140;2024-03-17T08:00:38;12.30;99.90
10419;DHT22;5256;48.728;9.140;2024-03-17T08:03:03;12.20;99.90
10419;DHT22;5256;48.728;9.140;2024-03-17T08:05:29;12.20;99.90
10419;DHT22;5256;48.728;9.140;2024-03-17T08:07:55;12.10;99.90
10419;DHT22;5256;48.728;9.140;2024-03-17T08:10:21;11.90;99.90
10419;DHT22;5256;48.728;9.140;2024-03-17T08:12:50;11.80;99.90
10419;DHT22;5256;48.728;9.140;2024-03-17T08:15:15;11.70;99.90
10419;DHT22;5256;48.728;9.140;2024-03-17T08:17:41;11.90;99.90
10419;DHT22;5256;48.728;9.140;2024-03-17T08:20:07;11.80;99.90
10419;DHT22;5256;48.728;9.140;2024-03-17T08:22:32;11.80;99.90
10419;DHT22;5256;48.728;9.140;2024-03-17T08:24:58;11.80;99.90
10419;DHT22;5256;48.728;9.140;2024-03-17T08:27:23;11.70;99.90
10419;DHT22;5256;48.728;9.140;2024-03-17T08:29:49;11.90;99.90
10419;DHT22;5256;48.728;9.140;2024-03-17T08:32:15;11.70;99.90
10419;DHT22;5256;48.728;9.140;2024-03-17T08:34:40;11.40;99.90
10419;DHT22;5256;48.728;9.140;2024-03-17T08:37:06;11.60;99.90
10419;DHT22;5256;48.728;9.140;2024-03-17T08:39:34;11.90;99.90
10419;DHT22;5256;48.728;9.140;2024-03-17T08:41:59;11.80;99.90
10419;DHT22;5256;48.728;9.140;2024-03-17T08:44:25;11.80;99.90
10419;DHT22;5256;48.728;9.140;2024-03-17T08:46:51;11.90;99.90
10419;DHT22;5256;48.728;9.140;2024-03-17T08:49:16;12.00;99.90
10419;DHT22;5256;48.728;9.140;2024-03-17T08:51:42;12.20;99.90
10419;DHT22;5256;48.728;9.140;2024-03-17T08:54:08;12.70;99.90
10419;DHT22;5256;48.728;9.140;2024-03-17T08:56:33;12.90;99.90
10419;DHT22;5256;48.728;9.140;2024-03-17T08:59:01;13.10;99.90
10419;DHT22;5256;48.728;9.140;2024-03-17T09:01:26;13.30;99.90
10419;DHT22;5256;48.728;9.140;2024-03-17T09:03:52;13.10;99.90
10419;DHT22;5256;48.728;9.140;2024-03-17T09:06:20;13.10;99.90
10419;DHT22;5256;48.728;9.140;2024-03-17T09:08:47;13.10;99.90
10419;DHT22;5256;48.728;9.140;2024-03-17T09:11:13;13.30;99.90
10419;DHT22;5256;48.728;9.140;2024-03-17T09:13:39;13.20;99.90
10419;DHT22;5256;48.728;9.140;2024-03-17T09:16:05;13.30;99.90
10419;DHT22;5256;48.728;9.140;2024-03-17T09:18:32;13.40;99.90
10419;DHT22;5256;48.728;9.140;2024-03-17T09:20:59;13.60;99.90
10419;DHT22;5256;48.728;9.140;2024-03-17T09:23:25;13.60;99.90
10419;DHT22;5256;48.728;9.140;2024-03-17T09:25:55;13.40;99.90
10419;DHT22;5256;48.728;9.140;2024-03-17T09:28:21;13.40;99.90
10419;DHT22;5256;48.728;9.140;2024-03-17T09:30:47;13.40;99.90
10419;DHT22;5256;48.728;9.140;2024-03-17T09:33:13;13.50;99.90
10419;DHT22;5256;48.728;9.140;2024-03-17T09:35:38;13.90;99.90
10419;DHT22;5256;48.728;9.140;2024-03-17T09:38:04;13.70;99.90
10419;DHT22;5256;48.728;9.140;2024-03-17T09:40:30;13.50;99.90
10419;DHT22;5256;48.728;9.140;2024-03-17T09:42:56;13.50;99.90
10419;DHT22;5256;48.728;9.140;2024-03-17T09:45:24;13.50;99.90
10419;DHT22;5256;48.728;9.140;2024-03-17T09:47:51;13.40;99.90
10419;DHT22;5256;48.728;9.140;2024-03-17T09:50:16;13.50;99.90
10419;DHT22;5256;48.728;9.140;2024-03-17T09:52:45;13.50;99.90
10419;DHT22;5256;48.728;9.140;2024-03-17T09:55:16;13.60;99.90
10419;DHT22;5256;48.728;9.140;2024-03-17T09:57:43;13.70;99.90
10419;DHT22;5256;48.728;9.140;2024-03-17T10:00:11;13.60;99.90
10419;DHT22;5256;48.728;9.140;2024-03-17T10:02:46;13.10;99.90
10419;DHT22;5256;48.728;9.140;2024-03-17T10:05:24;13.30;99.90
10419;DHT22;5256;48.728;9.140;2024-03-17T10:07:51;13.20;99.90
10419;DHT22;5256;48.728;9.140;2024-03-17T10:10:18;13.30;99.90
10419;DHT22;5256;48.728;9.140;2024-03-17T10:12:48;13.30;99.90
10419;DHT22;5256;48.728;9.140;2024-03-17T10:15:14;13.40;99.90
10419;DHT22;5256;48.728;9.140;2024-03-17T10:17:40;13.60;99.90
10419;DHT22;5256;48.728;9.140;2024-03-17T10:20:26;13.20;99.90
10419;DHT22;5256;48.728;9.140;2024-03-17T10:25:39;13.80;99.90
10419;DHT22;5256;48.728;9.140;2024-03-17T10:28:11;14.00;99.90
10419;DHT22;5256;48.728;9.140;2024-03-17T10:30:37;14.00;99.90
10419;DHT22;5256;48.728;9.140;2024-03-17T10:33:05;14.10;99.90
10419;DHT22;5256;48.728;9.140;2024-03-17T10:35:36;14.30;99.90
10419;DHT22;5256;48.728;9.140;2024-03-17T10:38:06;14.60;99.90
10419;DHT22;5256;48.728;9.140;2024-03-17T10:40:33;14.90;99.90
10419;DHT22;5256;48.728;9.140;2024-03-17T10:43:02;14.80;99.90
10419;DHT22;5256;48.728;9.140;2024-03-17T10:45:28;14.60;99.90
10419;DHT22;5256;48.728;9.140;2024-03-17T10:48:02;14.40;99.90
10419;DHT22;5256;48.728;9.140;2024-03-17T10:50:30;14.00;99.90
10419;DHT22;5256;48.728;9.140;2024-03-17T10:53:01;13.50;99.90
10419;DHT22;5256;48.728;9.140;2024-03-17T10:55:45;14.00;99.90
10419;DHT22;5256;48.728;9.140;2024-03-17T10:58:23;14.20;99.90
10419;DHT22;5256;48.728;9.140;2024-03-17T11:00:50;14.30;99.90
10419;DHT22;5256;48.728;9.140;2024-03-17T11:03:18;14.40;99.90
10419;DHT22;5256;48.728;9.140;2024-03-17T11:05:43;14.40;99.90
10419;DHT22;5256;48.728;9.140;2024-03-17T11:08:15;14.20;99.90
10419;DHT22;5256;48.728;9.140;2024-03-17T11:10:49;13.90;99.90
10419;DHT22;5256;48.728;9.140;2024-03-17T11:13:44;13.90;99.90
10419;DHT22;5256;48.728;9.140;2024-03-17T11:16:25;13.60;99.90
10419;DHT22;5256;48.728;9.140;2024-03-17T11:18:52;13.50;99.90
10419;DHT22;5256;48.728;9.140;2024-03-17T11:21:21;13.90;99.90
10419;DHT22;5256;48.728;9.140;2024-03-17T11:23:57;14.00;99.90
10419;DHT22;5256;48.728;9.140;2024-03-17T11:26:29;14.20;99.90
10419;DHT22;5256;48.728;9.140;2024-03-17T11:28:55;14.10;99.90
10419;DHT22;5256;48.728;9.140;2024-03-17T11:31:43;13.90;99.90
10419;DHT22;5256;48.728;9.140;2024-03-17T11:34:29;13.80;99.90
10419;DHT22;5256;48.728;9.140;2024-03-17T11:36:56;14.30;99.90
10419;DHT22;5256;48.728;9.140;2024-03-17T11:42:18;14.70;99.90
10419;DHT22;5256;48.728;9.140;2024-03-17T11:45:03;14.80;99.90
10419;DHT22;5256;48.728;9.140;2024-03-17T11:47:36;14.90;99.90
10419;DHT22;5256;48.728;9.140;2024-03-17T11:50:03;14.80;99.90
10419;DHT22;5256;48.728;9.140;2024-03-17T11:52:29;14.80;99.90
10419;DHT22;5256;48.728;9.140;2024-03-17T11:54:55;14.70;99.90
10419;DHT22;5256;48.728;9.140;2024-03-17T11:57:22;14.20;99.90
10419;DHT22;5256;48.728;9.140;2024-03-17T11:59:48;13.80;99.90
10419;DHT22;5256;48.728;9.140;2024-03-17T12:02:28;13.90;99.90
10419;DHT22;5256;48.728;9.140;2024-03-17T12:04:57;14.40;99.90
10419;DHT22;5256;48.728;9.140;2024-03-17T12:07:23;14.80;99.90
10419;DHT22;5256;48.728;9.140;2024-03-17T12:09:50;14.70;99.90
10419;DHT22;5256;48.728;9.140;2024-03-17T12:12:26;14.70;99.90
10419;DHT22;5256;48.728;9.140;2024-03-17T12:15:02;14.90;99.90
10419;DHT22;5256;48.728;9.140;2024-03-17T12:17:28;14.70;99.90
10419;DHT22;5256;48.728;9.140;2024-03-17T12:19:54;14.60;99.90
10419;DHT22;5256;48.728;9.140;2024-03-17T12:22:24;14.80;99.90
10419;DHT22;5256;48.728;9.140;2024-03-17T12:24:55;15.00;99.90
10419;DHT22;5256;48.728;9.140;2024-03-17T12:27:25;15.00;99.90
10419;DHT22;5256;48.728;9.140;2024-03-17T12:29:52;15.00;99.90
10419;DHT22;5256;48.728;9.140;2024-03-17T12:32:20;15.00;99.90
10419;DHT22;5256;48.728;9.140;2024-03-17T12:34:49;14.90;99.90
10419;DHT22;5256;48.728;9.140;2024-03-17T12:37:27;14.60;99.90
10419;DHT22;5256;48.728;9.140;2024-03-17T12:40:00;14.20;99.90
10419;DHT22;5256;48.728;9.140;2024-03-17T12:42:27;14.50;99.90
10419;DHT22;5256;48.728;9.140;2024-03-17T12:44:54;14.70;99.90
10419;DHT22;5256;48.728;9.140;2024-03-17T12:47:20;14.70;99.90
10419;DHT22;5256;48.728;9.140;2024-03-17T12:49:51;14.70;99.90
10419;DHT22;5256;48.728;9.140;2024-03-17T12:52:28;14.70;99.90
10419;DHT22;5256;48.728;9.140;2024-03-17T12:55:06;14.70;99.90
10419;DHT22;5256;48.728;9.140;2024-03-17T12:57:51;14.60;99.90
10419;DHT22;5256;48.728;9.140;2024-03-17T13:00:37;14.60;99.90
10419;DHT22;5256;48.728;9.140;2024-03-17T13:03:06;14.60;99.90
10419;DHT22;5256;48.728;9.140;2024-03-17T13:05:33;14.60;99.90
10419;DHT22;5256;48.728;9.140;2024-03-17T13:07:58;14.50;99.90
10419;DHT22;5256;48.728;9.140;2024-03-17T13:10:25;14.50;99.90
10419;DHT22;5256;48.728;9.140;2024-03-17T13:13:02;14.60;99.90
10419;DHT22;5256;48.728;9.140;2024-03-17T13:15:28;14.60;99.90
10419;DHT22;5256;48.728;9.140;2024-03-17T13:17:56;14.70;99.90
10419;DHT22;5256;48.728;9.140;2024-03-17T13:20:22;14.90;99.90
10419;DHT22;5256;48.728;9.140;2024-03-17T13:22:47;15.20;99.90
10419;DHT22;5256;48.728;9.140;2024-03-17T13:25:18;15.30;99.90
10419;DHT22;5256;48.728;9.140;2024-03-17T13:27:45;15.10;99.90
10419;DHT22;5256;48.728;9.140;2024-03-17T13:30:15;15.30;99.90
10419;DHT22;5256;48.728;9.140;2024-03-17T13:32:41;15.40;99.90
10419;DHT22;5256;48.728;9.140;2024-03-17T13:35:18;15.40;99.90
10419;DHT22;5256;48.728;9.140;2024-03-17T13:37:49;15.50;99.90
10419;DHT22;5256;48.728;9.140;2024-03-17T13:40:16;15.50;99.90
10419;DHT22;5256;48.728;9.140;2024-03-17T13:42:44;15.60;99.90
10419;DHT22;5256;48.728;9.140;2024-03-17T13:45:14;15.40;99.90
10419;DHT22;5256;48.728;9.140;2024-03-17T13:47:40;15.40;99.90
10419;DHT22;5256;48.728;9.140;2024-03-17T13:50:07;14.90;99.90
10419;DHT22;5256;48.728;9.140;2024-03-17T13:52:37;14.80;99.90
10419;DHT22;5256;48.728;9.140;2024-03-17T13:55:03;14.90;99.90
10419;DHT22;5256;48.728;9.140;2024-03-17T13:57:34;15.00;99.90
10419;DHT22;5256;48.728;9.140;2024-03-17T14:00:00;15.10;99.90
10419;DHT22;5256;48.728;9.140;2024-03-17T14:02:26;15.10;99.90
10419;DHT22;5256;48.728;9.140;2024-03-17T14:04:51;15.00;99.90
10419;DHT22;5256;48.728;9.140;2024-03-17T14:07:17;14.90;99.90
10419;DHT22;5256;48.728;9.140;2024-03-17T14:09:43;14.90;99.90
10419;DHT22;5256;48.728;9.140;2024-03-17T14:12:14;14.80;99.90
10419;DHT22;5256;48.728;9.140;2024-03-17T14:14:40;14.90;99.90
10419;DHT22;5256;48.728;9.140;2024-03-17T14:17:06;14.70;99.90
10419;DHT22;5256;48.728;9.140;2024-03-17T14:19:32;14.90;99.90
10419;DHT22;5256;48.728;9.140;2024-03-17T14:21:58;15.10;99.90
10419;DHT22;5256;48.728;9.140;2024-03-17T14:24:23;15.20;99.90
10419;DHT22;5256;48.728;9.140;2024-03-17T14:26:49;15.20;99.90
10419;DHT22;5256;48.728;9.140;2024-03-17T14:29:15;15.30;99.90
10419;DHT22;5256;48.728;9.140;2024-03-17T14:31:41;15.40;99.90
10419;DHT22;5256;48.728;9.140;2024-03-17T14:34:10;15.40;99.90
10419;DHT22;5256;48.728;9.140;2024-03-17T14:36:36;15.50;99.90
10419;DHT22;5256;48.728;9.140;2024-03-17T14:39:02;15.40;99.90
10419;DHT22;5256;48.728;9.140;2024-03-17T14:41:29;15.40;99.90
10419;DHT22;5256;48.728;9.140;2024-03-17T14:43:55;15.70;99.90
10419;DHT22;5256;48.728;9.140;2024-03-17T14:46:21;15.90;99.90
10419;DHT22;5256;48.728;9.140;2024-03-17T14:48:46;15.90;99.90
10419;DHT22;5256;48.728;9.140;2024-03-17T14:51:12;15.60;99.90
10419;DHT22;5256;48.728;9.140;2024-03-17T14:53:39;15.80;99.90
10419;DHT22;5256;48.728;9.140;2024-03-17T14:56:14;15.70;99.90
10419;DHT22;5256;48.728;9.140;2024-03-17T14:58:39;15.60;99.90
10419;DHT22;5256;48.728;9.140;2024-03-17T15:01:05;15.50;99.90
10419;DHT22;5256;48.728;9.140;2024-03-17T15:03:30;15.60;99.90
10419;DHT22;5256;48.728;9.140;2024-03-17T15:05:56;15.60;99.90
10419;DHT22;5256;48.728;9.140;2024-03-17T15:08:22;15.50;99.90
10419;DHT22;5256;48.728;9.140;2024-03-17T15:10:47;15.40;99.90
10419;DHT22;5256;48.728;9.140;2024-03-17T15:13:13;15.10;99.90
10419;DHT22;5256;48.728;9.140;2024-03-17T15:15:40;15.00;99.90
10419;DHT22;5256;48.728;9.140;2024-03-17T15:18:06;14.60;99.90
10419;DHT22;5256;48.728;9.140;2024-03-17T15:20:32;14.50;99.90
10419;DHT22;5256;48.728;9.140;2024-03-17T15:22:58;14.60;99.90
10419;DHT22;5256;48.728;9.140;2024-03-17T15:25:24;14.60;99.90
10419;DHT22;5256;48.728;9.140;2024-03-17T15:27:50;14.50;99.90
10419;DHT22;5256;48.728;9.140;2024-03-17T15:30:17;14.30;99.90
10419;DHT22;5256;48.728;9.140;2024-03-17T15:32:48;14.20;99.90
10419;DHT22;5256;48.728;9.140;2024-03-17T15:35:15;14.10;99.90
10419;DHT22;5256;48.728;9.140;2024-03-17T15:37:41;14.00;99.90
10419;DHT22;5256;48.728;9.140;2024-03-17T15:40:10;13.90;99.90
10419;DHT22;5256;48.728;9.140;2024-03-17T15:42:46;14.00;99.90
10419;DHT22;5256;48.728;9.140;2024-03-17T15:45:12;14.10;99.90
10419;DHT22;5256;48.728;9.140;2024-03-17T15:47:38;14.00;99.90
10419;DHT22;5256;48.728;9.140;2024-03-17T15:50:04;14.00;99.90
10419;DHT22;5256;48.728;9.140;2024-03-17T15:52:30;14.00;99.90
10419;DHT22;5256;48.728;9.140;2024-03-17T15:54:58;14.00;99.90
10419;DHT22;5256;48.728;9.140;2024-03-17T15:57:24;13.80;99.90
10419;DHT22;5256;48.728;9.140;2024-03-17T15:59:51;13.70;99.90
10419;DHT22;5256;48.728;9.140;2024-03-17T16:02:19;13.50;99.90